sensor_id;sensor_type;location;lat;lon;timestamp;temperature;humidity
17887;DHT22;9069;52.044;7.472;2023-01-08T00:01:08;13.40;98.20
17887;DHT22;9069;52.044;7.472;2023-01-08T00:03:35;13.40;98.10
17887;DHT22;9069;52.044;7.472;2023-01-08T00:06:05;13.40;98.20
17887;DHT22;9069;52.044;7.472;2023-01-08T00:08:32;13.40;98.20
17887;DHT22;9069;52.044;7.472;2023-01-08T00:10:59;13.40;98.20
17887;DHT22;9069;52.044;7.472;2023-01-08T00:13:26;13.40;98.30
17887;DHT22;9069;52.044;7.472;2023-01-08T00:15:53;13.50;98.30
17887;DHT22;9069;52.044;7.472;2023-01-08T00:18:20;13.50;98.30
17887;DHT22;9069;52.044;7.472;2023-01-08T00:20:47;13.50;98.30
17887;DHT22;9069;52.044;7.472;2023-01-08T00:23:16;13.50;98.30
17887;DHT22;9069;52.044;7.472;2023-01-08T00:25:43;13.50;98.30
17887;DHT22;9069;52.044;7.472;2023-01-08T00:28:10;13.50;98.30
17887;DHT22;9069;52.044;7.472;2023-01-08T00:30:37;13.50;98.30
17887;DHT22;9069;52.044;7.472;2023-01-08T00:33:03;13.50;98.30
17887;DHT22;9069;52.044;7.472;2023-01-08T00:35:30;13.50;98.40
17887;DHT22;9069;52.044;7.472;2023-01-08T00:37:57;13.50;98.40
17887;DHT22;9069;52.044;7.472;2023-01-08T00:40:24;13.50;98.40
17887;DHT22;9069;52.044;7.472;2023-01-08T00:42:50;13.50;98.40
17887;DHT22;9069;52.044;7.472;2023-01-08T00:45:17;13.50;98.40
17887;DHT22;9069;52.044;7.472;2023-01-08T00:47:44;13.50;98.40
17887;DHT22;9069;52.044;7.472;2023-01-08T00:50:11;13.50;98.50
17887;DHT22;9069;52.044;7.472;2023-01-08T00:52:38;13.50;98.50
17887;DHT22;9069;52.044;7.472;2023-01-08T00:55:05;13.50;98.50
17887;DHT22;9069;52.044;7.472;2023-01-08T00:57:36;13.50;98.60
17887;DHT22;9069;52.044;7.472;2023-01-08T01:00:05;13.50;98.60
17887;DHT22;9069;52.044;7.472;2023-01-08T01:02:35;13.40;98.60
17887;DHT22;9069;52.044;7.472;2023-01-08T01:05:02;13.50;98.60
17887;DHT22;9069;52.044;7.472;2023-01-08T01:07:29;13.50;98.70
17887;DHT22;9069;52.044;7.472;2023-01-08T01:09:56;13.50;98.70
17887;DHT22;9069;52.044;7.472;2023-01-08T01:12:23;13.50;98.70
17887;DHT22;9069;52.044;7.472;2023-01-08T01:14:50;13.50;98.70
17887;DHT22;9069;52.044;7.472;2023-01-08T01:17:16;13.50;98.70
17887;DHT22;9069;52.044;7.472;2023-01-08T01:19:43;13.50;98.70
17887;DHT22;9069;52.044;7.472;2023-01-08T01:22:11;13.50;98.80
17887;DHT22;9069;52.044;7.472;2023-01-08T01:24:37;13.50;98.70
17887;DHT22;9069;52.044;7.472;2023-01-08T01:27:04;13.50;98.80
17887;DHT22;9069;52.044;7.472;2023-01-08T01:29:31;13.50;98.80
17887;DHT22;9069;52.044;7.472;2023-01-08T01:31:58;13.50;98.80
17887;DHT22;9069;52.044;7.472;2023-01-08T01:34:24;13.50;98.80
17887;DHT22;9069;52.044;7.472;2023-01-08T01:36:51;13.50;98.80
17887;DHT22;9069;52.044;7.472;2023-01-08T01:39:17;13.50;98.80
17887;DHT22;9069;52.044;7.472;2023-01-08T01:41:46;13.50;98.80
17887;DHT22;9069;52.044;7.472;2023-01-08T01:44:39;13.50;98.70
17887;DHT22;9069;52.044;7.472;2023-01-08T01:47:22;13.50;98.60
17887;DHT22;9069;52.044;7.472;2023-01-08T01:50:12;13.50;98.70
17887;DHT22;9069;52.044;7.472;2023-01-08T01:53:04;13.50;98.60
17887;DHT22;9069;52.044;7.472;2023-01-08T01:55:30;13.50;98.70
17887;DHT22;9069;52.044;7.472;2023-01-08T01:58:02;13.50;98.70
17887;DHT22;9069;52.044;7.472;2023-01-08T02:00:31;13.50;98.60
17887;DHT22;9069;52.044;7.472;2023-01-08T02:02:59;13.50;98.70
17887;DHT22;9069;52.044;7.472;2023-01-08T02:05:40;13.50;98.70
17887;DHT22;9069;52.044;7.472;2023-01-08T02:08:12;13.50;98.60
17887;DHT22;9069;52.044;7.472;2023-01-08T02:10:53;13.50;98.60
17887;DHT22;9069;52.044;7.472;2023-01-08T02:13:32;13.50;98.60
17887;DHT22;9069;52.044;7.472;2023-01-08T02:16:15;13.50;98.40
17887;DHT22;9069;52.044;7.472;2023-01-08T02:18:55;13.50;98.50
17887;DHT22;9069;52.044;7.472;2023-01-08T02:21:35;13.50;98.50
17887;DHT22;9069;52.044;7.472;2023-01-08T02:24:19;13.50;98.50
17887;DHT22;9069;52.044;7.472;2023-01-08T02:26:52;13.50;98.40
17887;DHT22;9069;52.044;7.472;2023-01-08T02:29:23;13.50;98.50
17887;DHT22;9069;52.044;7.472;2023-01-08T02:31:51;13.50;98.60
17887;DHT22;9069;52.044;7.472;2023-01-08T02:34:18;13.50;98.60
17887;DHT22;9069;52.044;7.472;2023-01-08T02:36:46;13.50;98.60
17887;DHT22;9069;52.044;7.472;2023-01-08T02:44:56;13.50;98.50
17887;DHT22;9069;52.044;7.472;2023-01-08T02:50:23;13.50;98.60
17887;DHT22;9069;52.044;7.472;2023-01-08T02:55:45;13.40;98.50
17887;DHT22;9069;52.044;7.472;2023-01-08T02:58:14;13.40;98.60
17887;DHT22;9069;52.044;7.472;2023-01-08T03:00:43;13.40;98.60
17887;DHT22;9069;52.044;7.472;2023-01-08T03:03:11;13.40;98.60
17887;DHT22;9069;52.044;7.472;2023-01-08T03:05:40;13.40;99.00
17887;DHT22;9069;52.044;7.472;2023-01-08T03:08:09;13.40;98.60
17887;DHT22;9069;52.044;7.472;2023-01-08T03:10:40;13.40;98.60
17887;DHT22;9069;52.044;7.472;2023-01-08T03:13:12;13.40;98.60
17887;DHT22;9069;52.044;7.472;2023-01-08T03:15:45;13.40;98.60
17887;DHT22;9069;52.044;7.472;2023-01-08T03:18:19;13.40;98.60
17887;DHT22;9069;52.044;7.472;2023-01-08T03:20:47;13.40;98.60
17887;DHT22;9069;52.044;7.472;2023-01-08T03:23:15;13.40;98.70
17887;DHT22;9069;52.044;7.472;2023-01-08T03:25:45;13.40;98.70
17887;DHT22;9069;52.044;7.472;2023-01-08T03:28:19;13.40;98.70
17887;DHT22;9069;52.044;7.472;2023-01-08T03:30:49;13.40;98.70
17887;DHT22;9069;52.044;7.472;2023-01-08T03:33:18;13.40;98.80
17887;DHT22;9069;52.044;7.472;2023-01-08T03:35:50;13.40;98.70
17887;DHT22;9069;52.044;7.472;2023-01-08T03:38:24;13.40;98.70
17887;DHT22;9069;52.044;7.472;2023-01-08T03:40:55;13.40;98.70
17887;DHT22;9069;52.044;7.472;2023-01-08T03:43:23;13.40;98.80
17887;DHT22;9069;52.044;7.472;2023-01-08T03:45:55;13.40;98.80
17887;DHT22;9069;52.044;7.472;2023-01-08T03:48:24;13.40;98.80
17887;DHT22;9069;52.044;7.472;2023-01-08T03:50:51;13.40;98.80
17887;DHT22;9069;52.044;7.472;2023-01-08T03:53:17;13.40;98.90
17887;DHT22;9069;52.044;7.472;2023-01-08T03:55:44;13.40;98.90
17887;DHT22;9069;52.044;7.472;2023-01-08T03:58:11;13.40;98.90
17887;DHT22;9069;52.044;7.472;2023-01-08T04:00:38;13.40;98.90
17887;DHT22;9069;52.044;7.472;2023-01-08T04:03:04;13.30;98.90
17887;DHT22;9069;52.044;7.472;2023-01-08T04:05:31;13.30;98.90
17887;DHT22;9069;52.044;7.472;2023-01-08T04:07:58;13.40;99.00
17887;DHT22;9069;52.044;7.472;2023-01-08T04:10:25;13.30;99.00
17887;DHT22;9069;52.044;7.472;2023-01-08T04:12:51;13.40;99.00
17887;DHT22;9069;52.044;7.472;2023-01-08T04:15:18;13.40;99.00
17887;DHT22;9069;52.044;7.472;2023-01-08T04:17:45;13.40;99.00
17887;DHT22;9069;52.044;7.472;2023-01-08T04:20:12;13.40;99.00
17887;DHT22;9069;52.044;7.472;2023-01-08T04:22:38;13.40;99.00
17887;DHT22;9069;52.044;7.472;2023-01-08T04:25:05;13.40;99.00
17887;DHT22;9069;52.044;7.472;2023-01-08T04:27:32;13.40;99.00
17887;DHT22;9069;52.044;7.472;2023-01-08T04:29:59;13.40;99.00
17887;DHT22;9069;52.044;7.472;2023-01-08T04:32:26;13.40;99.00
17887;DHT22;9069;52.044;7.472;2023-01-08T04:34:52;13.40;99.00
17887;DHT22;9069;52.044;7.472;2023-01-08T04:37:19;13.40;99.00
17887;DHT22;9069;52.044;7.472;2023-01-08T04:39:46;13.40;99.00
17887;DHT22;9069;52.044;7.472;2023-01-08T04:42:12;13.40;99.40
17887;DHT22;9069;52.044;7.472;2023-01-08T04:44:39;13.40;99.00
17887;DHT22;9069;52.044;7.472;2023-01-08T04:47:06;13.40;99.00
17887;DHT22;9069;52.044;7.472;2023-01-08T04:49:32;13.40;99.00
17887;DHT22;9069;52.044;7.472;2023-01-08T04:51:59;13.40;99.10
17887;DHT22;9069;52.044;7.472;2023-01-08T04:54:26;13.40;99.10
17887;DHT22;9069;52.044;7.472;2023-01-08T04:56:52;13.40;99.10
17887;DHT22;9069;52.044;7.472;2023-01-08T04:59:19;13.40;99.10
17887;DHT22;9069;52.044;7.472;2023-01-08T05:01:46;13.40;99.10
17887;DHT22;9069;52.044;7.472;2023-01-08T05:04:13;13.40;99.10
17887;DHT22;9069;52.044;7.472;2023-01-08T05:06:39;13.40;99.10
17887;DHT22;9069;52.044;7.472;2023-01-08T05:09:06;13.40;99.10
17887;DHT22;9069;52.044;7.472;2023-01-08T05:11:33;13.40;99.10
17887;DHT22;9069;52.044;7.472;2023-01-08T05:14:01;13.40;99.20
17887;DHT22;9069;52.044;7.472;2023-01-08T05:16:27;13.40;99.20
17887;DHT22;9069;52.044;7.472;2023-01-08T05:18:54;13.40;99.20
17887;DHT22;9069;52.044;7.472;2023-01-08T05:21:20;13.40;99.20
17887;DHT22;9069;52.044;7.472;2023-01-08T05:23:47;13.30;99.20
17887;DHT22;9069;52.044;7.472;2023-01-08T05:26:15;13.30;99.20
17887;DHT22;9069;52.044;7.472;2023-01-08T05:28:42;13.30;99.20
17887;DHT22;9069;52.044;7.472;2023-01-08T05:31:09;13.30;99.20
17887;DHT22;9069;52.044;7.472;2023-01-08T05:33:37;13.40;99.30
17887;DHT22;9069;52.044;7.472;2023-01-08T05:36:09;13.30;99.30
17887;DHT22;9069;52.044;7.472;2023-01-08T05:38:37;13.30;99.30
17887;DHT22;9069;52.044;7.472;2023-01-08T05:41:04;13.30;99.30
17887;DHT22;9069;52.044;7.472;2023-01-08T05:43:31;13.30;99.30
17887;DHT22;9069;52.044;7.472;2023-01-08T05:45:59;13.30;99.30
17887;DHT22;9069;52.044;7.472;2023-01-08T05:48:27;13.30;99.70
17887;DHT22;9069;52.044;7.472;2023-01-08T05:50:54;13.30;99.40
17887;DHT22;9069;52.044;7.472;2023-01-08T05:53:21;13.30;99.40
17887;DHT22;9069;52.044;7.472;2023-01-08T05:55:47;13.30;99.50
17887;DHT22;9069;52.044;7.472;2023-01-08T05:58:14;13.30;99.60
17887;DHT22;9069;52.044;7.472;2023-01-08T06:00:44;13.30;99.60
17887;DHT22;9069;52.044;7.472;2023-01-08T06:03:11;13.30;99.60
17887;DHT22;9069;52.044;7.472;2023-01-08T06:05:38;13.30;99.50
17887;DHT22;9069;52.044;7.472;2023-01-08T06:08:05;13.30;99.80
17887;DHT22;9069;52.044;7.472;2023-01-08T06:10:36;13.30;99.50
17887;DHT22;9069;52.044;7.472;2023-01-08T06:13:06;13.20;99.50
17887;DHT22;9069;52.044;7.472;2023-01-08T06:15:33;13.20;99.60
17887;DHT22;9069;52.044;7.472;2023-01-08T06:18:03;13.20;99.60
17887;DHT22;9069;52.044;7.472;2023-01-08T06:20:30;13.20;99.60
17887;DHT22;9069;52.044;7.472;2023-01-08T06:22:56;13.20;99.60
17887;DHT22;9069;52.044;7.472;2023-01-08T06:25:23;13.20;99.60
17887;DHT22;9069;52.044;7.472;2023-01-08T06:27:53;13.10;99.60
17887;DHT22;9069;52.044;7.472;2023-01-08T06:30:20;13.10;99.60
17887;DHT22;9069;52.044;7.472;2023-01-08T06:32:47;13.10;99.60
17887;DHT22;9069;52.044;7.472;2023-01-08T06:35:13;13.10;99.70
17887;DHT22;9069;52.044;7.472;2023-01-08T06:37:40;13.10;99.70
17887;DHT22;9069;52.044;7.472;2023-01-08T06:40:07;13.10;99.70
17887;DHT22;9069;52.044;7.472;2023-01-08T06:42:34;13.00;99.70
17887;DHT22;9069;52.044;7.472;2023-01-08T06:45:00;13.00;99.70
17887;DHT22;9069;52.044;7.472;2023-01-08T06:47:27;13.00;99.70
17887;DHT22;9069;52.044;7.472;2023-01-08T06:49:54;13.00;99.70
17887;DHT22;9069;52.044;7.472;2023-01-08T06:52:20;13.00;99.80
17887;DHT22;9069;52.044;7.472;2023-01-08T06:54:47;13.00;99.80
17887;DHT22;9069;52.044;7.472;2023-01-08T06:57:14;13.00;99.80
17887;DHT22;9069;52.044;7.472;2023-01-08T06:59:40;13.00;99.90
17887;DHT22;9069;52.044;7.472;2023-01-08T07:02:14;13.00;99.90
17887;DHT22;9069;52.044;7.472;2023-01-08T07:04:41;13.00;99.90
17887;DHT22;9069;52.044;7.472;2023-01-08T07:07:11;13.00;99.90
17887;DHT22;9069;52.044;7.472;2023-01-08T07:09:39;13.00;99.80
17887;DHT22;9069;52.044;7.472;2023-01-08T07:12:06;13.00;99.70
17887;DHT22;9069;52.044;7.472;2023-01-08T07:14:34;12.90;99.60
17887;DHT22;9069;52.044;7.472;2023-01-08T07:17:01;12.90;99.50
17887;DHT22;9069;52.044;7.472;2023-01-08T07:19:27;12.90;99.50
17887;DHT22;9069;52.044;7.472;2023-01-08T07:21:54;12.80;99.30
17887;DHT22;9069;52.044;7.472;2023-01-08T07:24:21;12.80;99.20
17887;DHT22;9069;52.044;7.472;2023-01-08T07:26:47;12.80;99.20
17887;DHT22;9069;52.044;7.472;2023-01-08T07:29:14;12.80;99.20
17887;DHT22;9069;52.044;7.472;2023-01-08T07:31:40;12.70;99.10
17887;DHT22;9069;52.044;7.472;2023-01-08T07:34:07;12.70;99.10
17887;DHT22;9069;52.044;7.472;2023-01-08T07:36:34;12.70;99.10
17887;DHT22;9069;52.044;7.472;2023-01-08T07:39:01;12.60;99.10
17887;DHT22;9069;52.044;7.472;2023-01-08T07:41:27;12.60;99.10
17887;DHT22;9069;52.044;7.472;2023-01-08T07:43:55;12.60;99.20
17887;DHT22;9069;52.044;7.472;2023-01-08T07:46:22;12.60;99.50
17887;DHT22;9069;52.044;7.472;2023-01-08T07:48:48;12.50;99.20
17887;DHT22;9069;52.044;7.472;2023-01-08T07:51:15;12.50;99.20
17887;DHT22;9069;52.044;7.472;2023-01-08T07:53:42;12.50;99.30
17887;DHT22;9069;52.044;7.472;2023-01-08T07:56:09;12.50;99.30
17887;DHT22;9069;52.044;7.472;2023-01-08T07:58:36;12.50;99.30
17887;DHT22;9069;52.044;7.472;2023-01-08T08:01:06;12.50;99.40
17887;DHT22;9069;52.044;7.472;2023-01-08T08:03:33;12.40;99.40
17887;DHT22;9069;52.044;7.472;2023-01-08T08:06:00;12.40;99.40
17887;DHT22;9069;52.044;7.472;2023-01-08T08:08:27;12.40;99.40
17887;DHT22;9069;52.044;7.472;2023-01-08T08:10:53;12.40;99.40
17887;DHT22;9069;52.044;7.472;2023-01-08T08:13:20;12.40;99.40
17887;DHT22;9069;52.044;7.472;2023-01-08T08:15:47;12.50;99.50
17887;DHT22;9069;52.044;7.472;2023-01-08T08:18:13;12.50;99.50
17887;DHT22;9069;52.044;7.472;2023-01-08T08:20:40;12.50;99.50
17887;DHT22;9069;52.044;7.472;2023-01-08T08:23:12;12.50;99.60
17887;DHT22;9069;52.044;7.472;2023-01-08T08:25:40;12.50;99.50
17887;DHT22;9069;52.044;7.472;2023-01-08T08:28:09;12.50;99.50
17887;DHT22;9069;52.044;7.472;2023-01-08T08:30:36;12.50;99.50
17887;DHT22;9069;52.044;7.472;2023-01-08T08:33:05;12.50;99.40
17887;DHT22;9069;52.044;7.472;2023-01-08T08:35:33;12.50;99.30
17887;DHT22;9069;52.044;7.472;2023-01-08T08:37:59;12.50;99.30
17887;DHT22;9069;52.044;7.472;2023-01-08T08:40:26;12.50;99.20
17887;DHT22;9069;52.044;7.472;2023-01-08T08:42:58;12.50;99.20
17887;DHT22;9069;52.044;7.472;2023-01-08T08:45:25;12.50;99.00
17887;DHT22;9069;52.044;7.472;2023-01-08T08:47:52;12.50;99.10
17887;DHT22;9069;52.044;7.472;2023-01-08T08:50:20;12.50;99.10
17887;DHT22;9069;52.044;7.472;2023-01-08T08:52:47;12.50;99.10
17887;DHT22;9069;52.044;7.472;2023-01-08T08:55:14;12.40;99.10
17887;DHT22;9069;52.044;7.472;2023-01-08T08:57:43;12.40;99.10
17887;DHT22;9069;52.044;7.472;2023-01-08T09:00:11;12.40;99.10
17887;DHT22;9069;52.044;7.472;2023-01-08T09:02:38;12.40;99.00
17887;DHT22;9069;52.044;7.472;2023-01-08T09:05:06;12.40;98.90
17887;DHT22;9069;52.044;7.472;2023-01-08T09:07:32;12.40;98.80
17887;DHT22;9069;52.044;7.472;2023-01-08T09:09:59;12.40;98.80
17887;DHT22;9069;52.044;7.472;2023-01-08T09:12:26;12.40;98.80
17887;DHT22;9069;52.044;7.472;2023-01-08T09:14:52;12.40;98.80
17887;DHT22;9069;52.044;7.472;2023-01-08T09:17:20;12.40;98.90
17887;DHT22;9069;52.044;7.472;2023-01-08T09:19:47;12.40;99.10
17887;DHT22;9069;52.044;7.472;2023-01-08T09:22:13;12.40;99.40
17887;DHT22;9069;52.044;7.472;2023-01-08T09:24:40;12.50;99.80
17887;DHT22;9069;52.044;7.472;2023-01-08T09:27:07;12.60;99.90
17887;DHT22;9069;52.044;7.472;2023-01-08T09:29:36;12.70;99.90
17887;DHT22;9069;52.044;7.472;2023-01-08T09:32:05;12.80;99.90
17887;DHT22;9069;52.044;7.472;2023-01-08T09:34:33;13.00;99.90
17887;DHT22;9069;52.044;7.472;2023-01-08T09:37:02;13.20;99.90
17887;DHT22;9069;52.044;7.472;2023-01-08T09:39:29;13.40;99.90
17887;DHT22;9069;52.044;7.472;2023-01-08T09:41:59;13.60;99.90
17887;DHT22;9069;52.044;7.472;2023-01-08T09:44:28;13.90;99.90
17887;DHT22;9069;52.044;7.472;2023-01-08T09:46:57;14.10;99.90
17887;DHT22;9069;52.044;7.472;2023-01-08T09:49:33;14.40;99.90
17887;DHT22;9069;52.044;7.472;2023-01-08T09:52:02;14.60;99.90
17887;DHT22;9069;52.044;7.472;2023-01-08T09:54:29;14.90;99.90
17887;DHT22;9069;52.044;7.472;2023-01-08T09:56:57;15.20;99.90
17887;DHT22;9069;52.044;7.472;2023-01-08T09:59:24;15.40;99.90
17887;DHT22;9069;52.044;7.472;2023-01-08T10:01:52;15.70;99.90
17887;DHT22;9069;52.044;7.472;2023-01-08T10:07:19;16.30;99.30
17887;DHT22;9069;52.044;7.472;2023-01-08T10:09:48;16.60;98.10
17887;DHT22;9069;52.044;7.472;2023-01-08T10:14:50;17.10;96.90
17887;DHT22;9069;52.044;7.472;2023-01-08T10:17:33;17.40;97.60
17887;DHT22;9069;52.044;7.472;2023-01-08T10:20:16;17.60;96.30
17887;DHT22;9069;52.044;7.472;2023-01-08T10:22:43;17.80;95.10
17887;DHT22;9069;52.044;7.472;2023-01-08T10:25:16;17.90;96.20
17887;DHT22;9069;52.044;7.472;2023-01-08T10:30:22;18.20;93.80
17887;DHT22;9069;52.044;7.472;2023-01-08T10:32:54;18.20;91.80
17887;DHT22;9069;52.044;7.472;2023-01-08T10:35:33;18.30;91.40
17887;DHT22;9069;52.044;7.472;2023-01-08T10:38:01;18.20;90.20
17887;DHT22;9069;52.044;7.472;2023-01-08T10:40:38;18.10;91.40
17887;DHT22;9069;52.044;7.472;2023-01-08T10:43:16;18.00;91.10
17887;DHT22;9069;52.044;7.472;2023-01-08T10:46:00;17.90;89.50
17887;DHT22;9069;52.044;7.472;2023-01-08T10:48:32;17.80;88.50
17887;DHT22;9069;52.044;7.472;2023-01-08T10:51:05;17.70;89.20
17887;DHT22;9069;52.044;7.472;2023-01-08T10:53:32;17.50;88.80
17887;DHT22;9069;52.044;7.472;2023-01-08T10:56:02;17.40;90.10
17887;DHT22;9069;52.044;7.472;2023-01-08T10:58:40;17.30;89.80
17887;DHT22;9069;52.044;7.472;2023-01-08T11:01:15;17.10;87.60
17887;DHT22;9069;52.044;7.472;2023-01-08T11:03:42;17.00;89.70
17887;DHT22;9069;52.044;7.472;2023-01-08T11:06:11;16.90;90.30
17887;DHT22;9069;52.044;7.472;2023-01-08T11:08:38;16.80;90.10
17887;DHT22;9069;52.044;7.472;2023-01-08T11:11:06;16.70;90.40
17887;DHT22;9069;52.044;7.472;2023-01-08T11:13:34;16.60;90.00
17887;DHT22;9069;52.044;7.472;2023-01-08T11:16:06;16.60;90.40
17887;DHT22;9069;52.044;7.472;2023-01-08T11:18:44;16.50;89.50
17887;DHT22;9069;52.044;7.472;2023-01-08T11:21:26;16.40;89.70
17887;DHT22;9069;52.044;7.472;2023-01-08T11:24:17;16.30;90.00
17887;DHT22;9069;52.044;7.472;2023-01-08T11:27:06;16.30;90.00
17887;DHT22;9069;52.044;7.472;2023-01-08T11:32:48;16.10;90.60
17887;DHT22;9069;52.044;7.472;2023-01-08T11:35:20;16.10;90.50
17887;DHT22;9069;52.044;7.472;2023-01-08T11:37:58;16.00;90.60
17887;DHT22;9069;52.044;7.472;2023-01-08T11:43:26;15.90;91.30
17887;DHT22;9069;52.044;7.472;2023-01-08T12:00:29;15.60;91.70
17887;DHT22;9069;52.044;7.472;2023-01-08T12:03:00;15.60;91.80
17887;DHT22;9069;52.044;7.472;2023-01-08T12:07:59;15.60;92.60
17887;DHT22;9069;52.044;7.472;2023-01-08T12:16:11;15.60;92.00
17887;DHT22;9069;52.044;7.472;2023-01-08T12:21:32;15.60;92.40
17887;DHT22;9069;52.044;7.472;2023-01-08T12:24:21;15.60;92.30
17887;DHT22;9069;52.044;7.472;2023-01-08T12:29:56;15.60;92.80
17887;DHT22;9069;52.044;7.472;2023-01-08T12:35:23;15.60;92.10
17887;DHT22;9069;52.044;7.472;2023-01-08T12:38:15;15.60;92.40
17887;DHT22;9069;52.044;7.472;2023-01-08T12:40:45;15.60;92.00
17887;DHT22;9069;52.044;7.472;2023-01-08T12:43:36;15.60;92.30
17887;DHT22;9069;52.044;7.472;2023-01-08T12:46:05;15.60;91.90
17887;DHT22;9069;52.044;7.472;2023-01-08T12:48:33;15.60;92.50
17887;DHT22;9069;52.044;7.472;2023-01-08T12:51:06;15.50;92.20
17887;DHT22;9069;52.044;7.472;2023-01-08T12:53:53;15.50;92.30
17887;DHT22;9069;52.044;7.472;2023-01-08T12:56:31;15.50;91.70
17887;DHT22;9069;52.044;7.472;2023-01-08T12:59:20;15.50;92.00
17887;DHT22;9069;52.044;7.472;2023-01-08T13:02:17;15.40;92.10
17887;DHT22;9069;52.044;7.472;2023-01-08T13:04:46;15.40;92.40
17887;DHT22;9069;52.044;7.472;2023-01-08T13:07:28;15.30;92.80
17887;DHT22;9069;52.044;7.472;2023-01-08T13:10:05;15.30;92.40
17887;DHT22;9069;52.044;7.472;2023-01-08T13:12:39;15.30;92.50
17887;DHT22;9069;52.044;7.472;2023-01-08T13:15:07;15.20;92.70
17887;DHT22;9069;52.044;7.472;2023-01-08T13:17:36;15.20;92.90
17887;DHT22;9069;52.044;7.472;2023-01-08T13:20:04;15.10;92.90
17887;DHT22;9069;52.044;7.472;2023-01-08T13:22:35;15.10;92.90
17887;DHT22;9069;52.044;7.472;2023-01-08T13:25:10;15.00;92.80
17887;DHT22;9069;52.044;7.472;2023-01-08T13:27:48;14.90;92.90
17887;DHT22;9069;52.044;7.472;2023-01-08T13:33:01;14.80;92.70
17887;DHT22;9069;52.044;7.472;2023-01-08T13:35:29;14.80;93.00
17887;DHT22;9069;52.044;7.472;2023-01-08T13:43:14;14.60;92.90
17887;DHT22;9069;52.044;7.472;2023-01-08T13:48:37;14.50;93.10
17887;DHT22;9069;52.044;7.472;2023-01-08T13:51:05;14.40;93.40
17887;DHT22;9069;52.044;7.472;2023-01-08T13:53:32;14.40;93.60
17887;DHT22;9069;52.044;7.472;2023-01-08T13:56:02;14.30;93.90
17887;DHT22;9069;52.044;7.472;2023-01-08T13:58:41;14.30;94.00
17887;DHT22;9069;52.044;7.472;2023-01-08T14:01:09;14.30;94.00
17887;DHT22;9069;52.044;7.472;2023-01-08T14:03:43;14.30;94.20
17887;DHT22;9069;52.044;7.472;2023-01-08T14:06:17;14.20;94.00
17887;DHT22;9069;52.044;7.472;2023-01-08T14:08:58;14.20;94.00
17887;DHT22;9069;52.044;7.472;2023-01-08T14:11:42;14.20;93.50
17887;DHT22;9069;52.044;7.472;2023-01-08T14:14:14;14.20;93.50
17887;DHT22;9069;52.044;7.472;2023-01-08T14:16:43;14.10;93.50
17887;DHT22;9069;52.044;7.472;2023-01-08T14:19:15;14.10;93.70
17887;DHT22;9069;52.044;7.472;2023-01-08T14:22:00;14.10;93.60
17887;DHT22;9069;52.044;7.472;2023-01-08T14:24:27;14.00;93.30
17887;DHT22;9069;52.044;7.472;2023-01-08T14:26:58;14.00;93.70
17887;DHT22;9069;52.044;7.472;2023-01-08T14:29:29;13.90;93.50
17887;DHT22;9069;52.044;7.472;2023-01-08T14:31:58;13.90;93.70
17887;DHT22;9069;52.044;7.472;2023-01-08T14:34:28;13.90;93.70
17887;DHT22;9069;52.044;7.472;2023-01-08T14:36:56;13.80;93.70
17887;DHT22;9069;52.044;7.472;2023-01-08T14:39:34;13.80;93.90
17887;DHT22;9069;52.044;7.472;2023-01-08T14:42:14;13.70;93.80
17887;DHT22;9069;52.044;7.472;2023-01-08T14:45:07;13.70;93.90
17887;DHT22;9069;52.044;7.472;2023-01-08T14:47:38;13.70;94.00
17887;DHT22;9069;52.044;7.472;2023-01-08T14:50:06;13.60;94.10
17887;DHT22;9069;52.044;7.472;2023-01-08T14:52:33;13.50;94.10
17887;DHT22;9069;52.044;7.472;2023-01-08T14:55:05;13.50;94.20
17887;DHT22;9069;52.044;7.472;2023-01-08T14:57:32;13.50;94.20
17887;DHT22;9069;52.044;7.472;2023-01-08T15:00:00;13.40;94.30
17887;DHT22;9069;52.044;7.472;2023-01-08T15:02:32;13.40;94.30
17887;DHT22;9069;52.044;7.472;2023-01-08T15:05:20;13.40;94.20
17887;DHT22;9069;52.044;7.472;2023-01-08T15:08:18;13.30;94.30
17887;DHT22;9069;52.044;7.472;2023-01-08T15:11:00;13.20;94.20
17887;DHT22;9069;52.044;7.472;2023-01-08T15:13:33;13.20;94.30
17887;DHT22;9069;52.044;7.472;2023-01-08T15:16:30;13.20;94.40
17887;DHT22;9069;52.044;7.472;2023-01-08T15:21:36;13.10;94.50
17887;DHT22;9069;52.044;7.472;2023-01-08T15:24:05;13.00;94.50
17887;DHT22;9069;52.044;7.472;2023-01-08T15:26:32;13.00;94.50
17887;DHT22;9069;52.044;7.472;2023-01-08T15:29:04;13.00;94.60
17887;DHT22;9069;52.044;7.472;2023-01-08T15:31:46;12.90;94.50
17887;DHT22;9069;52.044;7.472;2023-01-08T15:34:17;12.90;94.50
17887;DHT22;9069;52.044;7.472;2023-01-08T15:36:45;12.80;94.50
17887;DHT22;9069;52.044;7.472;2023-01-08T15:39:12;12.80;94.60
17887;DHT22;9069;52.044;7.472;2023-01-08T15:41:39;12.80;94.60
17887;DHT22;9069;52.044;7.472;2023-01-08T15:44:25;12.80;94.70
17887;DHT22;9069;52.044;7.472;2023-01-08T15:46:52;12.80;94.70
17887;DHT22;9069;52.044;7.472;2023-01-08T15:49:18;12.70;94.70
17887;DHT22;9069;52.044;7.472;2023-01-08T15:51:47;12.70;94.70
17887;DHT22;9069;52.044;7.472;2023-01-08T15:54:15;12.70;94.60
17887;DHT22;9069;52.044;7.472;2023-01-08T15:56:41;12.60;94.60
17887;DHT22;9069;52.044;7.472;2023-01-08T15:59:08;12.60;94.60
17887;DHT22;9069;52.044;7.472;2023-01-08T16:01:37;12.60;94.60
17887;DHT22;9069;52.044;7.472;2023-01-08T16:04:03;12.60;94.60
17887;DHT22;9069;52.044;7.472;2023-01-08T16:06:30;12.60;94.70
17887;DHT22;9069;52.044;7.472;2023-01-08T16:08:59;12.50;94.70
17887;DHT22;9069;52.044;7.472;2023-01-08T16:11:26;12.50;94.70
17887;DHT22;9069;52.044;7.472;2023-01-08T16:13:53;12.50;94.80
17887;DHT22;9069;52.044;7.472;2023-01-08T16:16:20;12.50;94.90
17887;DHT22;9069;52.044;7.472;2023-01-08T16:18:47;12.40;94.90
17887;DHT22;9069;52.044;7.472;2023-01-08T16:21:14;12.40;95.00
17887;DHT22;9069;52.044;7.472;2023-01-08T16:23:41;12.40;95.00
17887;DHT22;9069;52.044;7.472;2023-01-08T16:26:14;12.40;95.10
17887;DHT22;9069;52.044;7.472;2023-01-08T16:28:41;12.40;95.10
17887;DHT22;9069;52.044;7.472;2023-01-08T16:31:09;12.30;95.20
17887;DHT22;9069;52.044;7.472;2023-01-08T16:33:36;12.30;95.20
17887;DHT22;9069;52.044;7.472;2023-01-08T16:36:07;12.30;95.30
17887;DHT22;9069;52.044;7.472;2023-01-08T16:38:35;12.30;95.30
17887;DHT22;9069;52.044;7.472;2023-01-08T16:41:03;12.20;95.30
17887;DHT22;9069;52.044;7.472;2023-01-08T16:43:30;12.20;95.30
17887;DHT22;9069;52.044;7.472;2023-01-08T16:46:12;12.20;95.40
17887;DHT22;9069;52.044;7.472;2023-01-08T16:48:42;12.10;95.40
17887;DHT22;9069;52.044;7.472;2023-01-08T16:51:09;12.10;95.40
17887;DHT22;9069;52.044;7.472;2023-01-08T16:53:36;12.10;95.40
17887;DHT22;9069;52.044;7.472;2023-01-08T16:56:04;12.10;95.50
17887;DHT22;9069;52.044;7.472;2023-01-08T16:58:32;12.10;95.50
17887;DHT22;9069;52.044;7.472;2023-01-08T17:01:01;12.10;95.50
17887;DHT22;9069;52.044;7.472;2023-01-08T17:03:29;12.00;95.50
17887;DHT22;9069;52.044;7.472;2023-01-08T17:05:55;12.00;95.50
17887;DHT22;9069;52.044;7.472;2023-01-08T17:08:28;12.00;95.60
17887;DHT22;9069;52.044;7.472;2023-01-08T17:10:55;11.90;95.60
17887;DHT22;9069;52.044;7.472;2023-01-08T17:13:22;11.90;95.60